createdAt,value
2019-03-01T01:03:50.911Z,4.73
2019-03-01T01:08:52.193Z,5.10
2019-03-01T01:13:53.461Z,5.10
2019-03-01T01:18:54.763Z,3.37
2019-03-01T01:23:56.074Z,3.77
2019-03-01T01:28:57.385Z,4.40
2019-03-01T02:30:59.383Z,4.13
2019-03-01T02:36:00.682Z,3.00
2019-03-01T02:41:01.969Z,1.93
2019-03-01T02:46:04.006Z,3.33
2019-03-01T02:51:05.327Z,2.90
2019-03-01T02:56:07.370Z,3.57
2019-03-01T04:04:31.245Z,5.07
2019-03-01T04:09:33.265Z,2.73
2019-03-01T04:14:34.562Z,3.83
2019-03-01T04:19:35.881Z,1.93
2019-03-01T04:24:37.164Z,5.07
2019-03-01T04:29:38.474Z,4.23
2019-03-01T05:31:41.604Z,2.53
2019-03-01T05:36:46.089Z,2.27
2019-03-01T05:41:47.458Z,2.50
2019-03-01T05:46:48.760Z,1.63
2019-03-01T05:51:50.217Z,2.60
2019-03-01T05:56:51.512Z,2.63
2019-03-01T07:05:16.546Z,2.57
2019-03-01T07:10:17.879Z,2.10
2019-03-01T07:15:19.266Z,2.03
2019-03-01T07:20:20.552Z,2.00
2019-03-01T07:25:21.906Z,1.10
2019-03-01T07:30:23.204Z,2.37
2019-03-01T08:32:27.453Z,2.93
2019-03-01T08:37:27.664Z,2.37
2019-03-01T08:42:28.935Z,1.00
2019-03-01T08:47:30.225Z,2.13
2019-03-01T08:52:31.509Z,2.63
2019-03-01T08:57:32.786Z,1.23
2019-03-01T10:05:55.380Z,1.97
2019-03-01T10:10:56.674Z,1.97
2019-03-01T10:15:58.701Z,2.07
2019-03-01T10:20:59.981Z,2.60
2019-03-01T10:26:01.282Z,2.60
2019-03-01T11:34:22.629Z,2.30
2019-03-01T11:39:23.929Z,0.40
2019-03-01T11:44:25.298Z,0.33
2019-03-01T11:49:26.578Z,0.43
2019-03-01T11:54:27.989Z,0.47
2019-03-01T11:59:29.293Z,0.40
2019-03-01T13:01:35.218Z,0.77
2019-03-01T13:06:39.914Z,0.67
2019-03-01T13:11:48.619Z,1.30
2019-03-01T13:16:52.330Z,0.73
2019-03-01T13:21:53.586Z,0.70
2019-03-01T13:26:54.871Z,0.40
2019-03-01T14:35:20.466Z,0.67
2019-03-01T14:40:22.642Z,0.43
2019-03-01T14:45:28.462Z,0.70
2019-03-01T14:50:33.307Z,0.60
2019-03-01T14:55:48.056Z,2.17
2019-03-01T16:04:11.935Z,1.63
2019-03-01T16:09:13.283Z,1.50
2019-03-01T16:14:14.566Z,1.20
2019-03-01T16:19:15.888Z,1.77
2019-03-01T16:24:17.216Z,1.70
2019-03-01T16:29:19.462Z,2.40
2019-03-01T16:34:20.848Z,3.43
2019-03-01T16:39:23.818Z,1.90
2019-03-01T16:44:24.669Z,2.07
2019-03-01T16:49:27.224Z,2.00
2019-03-01T16:54:27.420Z,2.83
2019-03-01T16:59:35.731Z,2.33
2019-03-01T17:04:39.405Z,2.30
2019-03-01T17:09:51.334Z,2.17
2019-03-01T17:14:50.645Z,2.43
2019-03-01T17:19:53.735Z,3.17
2019-03-01T17:25:02.293Z,2.20
2019-03-01T17:30:03.779Z,2.47
2019-03-01T17:35:06.384Z,2.17
2019-03-01T17:40:11.689Z,2.80
2019-03-01T17:45:20.990Z,2.40
2019-03-01T17:50:20.066Z,2.90
2019-03-01T17:55:25.949Z,4.33
2019-03-01T18:00:29.150Z,2.67
2019-03-01T18:05:30.514Z,4.23
2019-03-01T18:10:32.941Z,5.07
2019-03-01T18:15:33.958Z,4.37
2019-03-01T18:20:37.657Z,5.17
2019-03-01T18:25:36.611Z,4.27
2019-03-01T18:30:38.315Z,4.20
2019-03-01T18:35:39.678Z,4.17
2019-03-01T18:40:41.742Z,3.80
2019-03-01T18:45:43.822Z,3.70
2019-03-01T18:50:47.302Z,3.87
2019-03-01T18:55:49.626Z,5.27
2019-03-01T19:00:51.164Z,4.57
2019-03-01T19:05:53.494Z,3.70
2019-03-01T19:10:55.337Z,3.40
2019-03-01T19:15:59.641Z,3.40
2019-03-01T19:21:13.957Z,5.63
2019-03-01T19:26:19.187Z,3.57
2019-03-01T19:31:30.430Z,4.33
2019-03-01T19:36:35.591Z,4.90
2019-03-01T19:41:37.958Z,3.00
2019-03-01T19:46:47.544Z,3.40
2019-03-01T19:51:50.467Z,3.33
2019-03-01T19:56:52.046Z,4.30
2019-03-01T20:02:03.870Z,5.20
2019-03-01T20:07:06.768Z,4.10
2019-03-01T20:12:08.742Z,5.10
2019-03-01T20:17:12.840Z,5.17
2019-03-01T20:22:15.506Z,3.87
2019-03-01T20:27:17.159Z,5.87
2019-03-01T20:32:19.251Z,4.90
2019-03-01T20:37:20.734Z,5.77
2019-03-01T20:42:24.392Z,5.77
2019-03-01T20:47:23.482Z,6.37
2019-03-01T20:52:24.898Z,7.40
2019-03-01T20:57:27.126Z,6.83
2019-03-01T21:02:29.464Z,8.57
2019-03-01T21:07:31.620Z,7.90
2019-03-01T21:12:33.522Z,8.23
2019-03-01T21:17:34.326Z,7.30
2019-03-01T21:22:36.671Z,6.37
2019-03-01T21:27:37.145Z,6.37
2019-03-01T21:32:40.465Z,7.67
2019-03-01T21:37:41.930Z,7.53
2019-03-01T21:42:43.275Z,8.17
2019-03-01T21:47:47.715Z,8.87
2019-03-01T21:52:46.030Z,12.10
2019-03-01T21:57:47.350Z,12.13
2019-03-01T22:02:52.812Z,11.10
2019-03-01T22:07:50.815Z,14.77
2019-03-01T22:12:52.211Z,14.23
2019-03-01T22:17:53.650Z,13.07
2019-03-01T22:22:54.980Z,13.43
2019-03-01T22:27:57.709Z,15.07
2019-03-01T22:32:58.285Z,10.77
2019-03-01T22:38:04.758Z,12.67
2019-03-01T22:43:02.912Z,13.13
2019-03-01T22:48:04.936Z,14.80
2019-03-01T22:53:06.666Z,12.73
2019-03-01T22:58:09.266Z,13.33
2019-03-01T23:34:51.414Z,11.63
2019-03-01T23:39:52.973Z,9.47
2019-03-01T23:44:54.372Z,12.47
2019-03-01T23:49:58.993Z,10.80
2019-03-01T23:54:57.006Z,11.77
2019-03-01T23:59:58.749Z,13.93
